Decoded Metar for LYUZ (UZICE PONIKVE in SERBIA) (IATA:N/A) | Meteo·Mobile Aviation Weather
aviador You're here:

LYUZ Decoded Metar

UZICE PONIKVE in SERBIA
Report Time2019-07-19 18:30:00
UTC Time2019-07-19 18:51:54
Flight Rules vfr VFR
WindVRB at 02 kt
Visibility9999 m
Phenomena:N/A
Clouds:N/A
Expected CloudBase > 2,000 ft AGL from Temp-Dew spread
CeilingNone
Temp18°C (ISA +9)
Dew Point13°C (73% RH)
QNH1021 hPa
Density Alt4,003 ft
Elevation3,012 ft
Report Wrong Elevation
Raw Report
METAR LYUZ 191830Z AUTO VRB02KT CAVOK 18/13 Q1021=

Extra information for LYUZ:More info

Metar Taf Metar & Taf Last 4 Metars F.Rules Stats Wind Profile Meteogram Temp Stats Airport Information Weather charts Add Link Nearby VenuesMetar ALERT Operation Metar Decoded Social comments